createdAt,value
2023-04-09T00:01:43.467Z,101506.38
2023-04-09T00:04:11.777Z,101503.09
2023-04-09T00:06:41.153Z,101499.78
2023-04-09T00:09:09.304Z,101497.53
2023-04-09T00:11:37.576Z,101504.81
2023-04-09T00:14:05.767Z,101505.16
2023-04-09T00:16:33.579Z,101500.06
2023-04-09T00:19:02.157Z,101498.41
2023-04-09T00:21:30.396Z,101509.34
2023-04-09T00:23:59.881Z,101501.59
2023-04-09T00:26:28.453Z,101497.66
2023-04-09T00:28:56.537Z,101502.31
2023-04-09T00:31:24.485Z,101498.19
2023-04-09T00:33:52.854Z,101494.91
2023-04-09T00:36:21.103Z,101491.63
2023-04-09T00:38:49.143Z,101490.16
2023-04-09T00:41:19.807Z,101491.13
2023-04-09T00:43:48.042Z,101482.72
2023-04-09T00:46:16.219Z,101475.97
2023-04-09T00:48:45.099Z,101479.97
2023-04-09T00:51:13.125Z,101469.72
2023-04-09T00:53:41.746Z,101473.72
2023-04-09T00:56:11.742Z,101468.81
2023-04-09T00:58:42.114Z,101469.16
2023-04-09T01:01:10.252Z,101461.94
2023-04-09T01:03:39.330Z,101469.38
2023-04-09T01:06:11.796Z,101470.59
2023-04-09T01:08:53.210Z,101470.91
2023-04-09T01:11:31.479Z,101462.50
2023-04-09T01:14:07.831Z,101457.75
2023-04-09T01:16:38.768Z,101463.41
2023-04-09T01:19:16.888Z,101458.47
2023-04-09T01:21:46.515Z,101459.81
2023-04-09T01:24:20.816Z,101460.28
2023-04-09T01:26:58.614Z,101460.47
2023-04-09T01:29:33.384Z,101465.28
2023-04-09T01:32:03.459Z,101469.25
2023-04-09T01:34:32.277Z,101465.16
2023-04-09T01:37:03.869Z,101467.81
2023-04-09T01:39:32.485Z,101470.44
2023-04-09T01:42:02.208Z,101470.44
2023-04-09T01:44:34.227Z,101476.66
2023-04-09T01:47:02.968Z,101466.47
2023-04-09T01:49:32.405Z,101466.81
2023-04-09T01:52:02.046Z,101465.16
2023-04-09T01:54:29.860Z,101468.09
2023-04-09T01:56:58.856Z,101464.16
2023-04-09T01:59:27.398Z,101461.03
2023-04-09T02:02:01.416Z,101458.56
2023-04-09T02:04:34.855Z,101466.03
2023-04-09T02:07:11.081Z,101459.28
2023-04-09T02:09:42.460Z,101456.97
2023-04-09T02:12:14.211Z,101465.09
2023-04-09T02:14:44.251Z,101465.41
2023-04-09T02:17:14.434Z,101459.31
2023-04-09T02:19:43.590Z,101464.97
2023-04-09T02:22:12.917Z,101457.38
2023-04-09T02:24:41.604Z,101455.88
2023-04-09T02:27:10.179Z,101454.44
2023-04-09T02:29:38.786Z,101452.78
2023-04-09T02:32:07.624Z,101455.59
2023-04-09T02:34:37.252Z,101459.06
2023-04-09T02:37:05.692Z,101451.47
2023-04-09T02:39:33.924Z,101449.03
2023-04-09T02:42:02.324Z,101446.53
2023-04-09T02:44:30.761Z,101439.59
2023-04-09T02:46:58.885Z,101443.25
2023-04-09T02:49:27.154Z,101444.41
2023-04-09T02:51:56.913Z,101440.94
2023-04-09T02:54:24.921Z,101440.31
2023-04-09T02:56:52.981Z,101430.06
2023-04-09T02:59:21.467Z,101429.25
2023-04-09T03:01:49.588Z,101431.25
2023-04-09T03:04:17.943Z,101430.44
2023-04-09T03:06:46.334Z,101423.47
2023-04-09T03:09:16.208Z,101412.09
2023-04-09T03:11:44.641Z,101420.19
2023-04-09T03:14:12.825Z,101418.56
2023-04-09T03:16:41.308Z,101423.19
2023-04-09T03:19:10.065Z,101417.91
2023-04-09T03:21:38.112Z,101418.91
2023-04-09T03:24:06.598Z,101418.91
2023-04-09T03:26:37.631Z,101423.19
2023-04-09T03:29:06.137Z,101415.63
2023-04-09T03:31:34.506Z,101413.63
2023-04-09T03:34:02.678Z,101410.97
2023-04-09T03:36:31.392Z,101411.97
2023-04-09T03:39:00.504Z,101411.97
2023-04-09T03:41:29.370Z,101406.69
2023-04-09T03:43:58.881Z,101397.75
2023-04-09T03:46:27.312Z,101405.06
2023-04-09T03:48:55.964Z,101406.22
2023-04-09T03:51:24.103Z,101403.75
2023-04-09T03:53:52.475Z,101400.47
2023-04-09T03:56:20.891Z,101398.16
2023-04-09T03:58:49.857Z,101396.69
2023-04-09T04:01:19.430Z,101398.50
2023-04-09T04:03:48.298Z,101393.56
2023-04-09T04:06:16.354Z,101392.06
2023-04-09T04:08:44.848Z,101394.91
2023-04-09T04:11:13.208Z,101398.53
2023-04-09T04:13:41.024Z,101388.31
2023-04-09T04:16:10.084Z,101389.31
2023-04-09T04:18:40.027Z,101385.03
2023-04-09T04:21:14.278Z,101378.44
2023-04-09T04:23:42.906Z,101387.50
2023-04-09T04:26:11.839Z,101381.56
2023-04-09T04:28:40.600Z,101388.66
2023-04-09T04:31:11.940Z,101387.03
2023-04-09T04:33:43.749Z,101390.00
2023-04-09T04:36:13.617Z,101386.84
2023-04-09T04:38:42.828Z,101399.22
2023-04-09T04:41:12.198Z,101399.22
2023-04-09T04:43:41.867Z,101394.13
2023-04-09T04:46:09.697Z,101395.28
2023-04-09T04:48:37.388Z,101402.53
2023-04-09T04:51:07.106Z,101396.59
2023-04-09T04:53:34.608Z,101404.19
2023-04-09T04:56:02.284Z,101397.59
2023-04-09T04:58:31.111Z,101397.91
2023-04-09T05:01:00.289Z,101398.28
2023-04-09T05:03:28.105Z,101405.53
2023-04-09T05:05:56.379Z,101396.16
2023-04-09T05:08:25.428Z,101397.97
2023-04-09T05:10:56.266Z,101394.66
2023-04-09T05:13:24.081Z,101393.19
2023-04-09T05:15:51.864Z,101406.38
2023-04-09T05:18:19.888Z,101396.81
2023-04-09T05:20:47.563Z,101404.56
2023-04-09T05:23:15.813Z,101401.94
2023-04-09T05:25:45.223Z,101407.03
2023-04-09T05:28:12.925Z,101400.09
2023-04-09T05:30:40.611Z,101407.03
2023-04-09T05:33:08.363Z,101395.66
2023-04-09T05:35:39.656Z,101401.25
2023-04-09T05:38:07.467Z,101403.88
2023-04-09T05:40:35.731Z,101405.53
2023-04-09T05:43:04.752Z,101404.19
2023-04-09T05:45:32.446Z,101400.56
2023-04-09T05:48:00.539Z,101398.41
2023-04-09T05:50:28.303Z,101403.38
2023-04-09T05:52:56.057Z,101403.84
2023-04-09T05:55:24.089Z,101406.00
2023-04-09T05:57:53.316Z,101414.06
2023-04-09T06:00:22.723Z,101406.47
2023-04-09T06:02:51.072Z,101405.94
2023-04-09T06:05:18.860Z,101403.63
2023-04-09T06:07:46.693Z,101415.13
2023-04-09T06:10:14.720Z,101416.25
2023-04-09T06:12:42.418Z,101420.69
2023-04-09T06:15:10.927Z,101416.34
2023-04-09T06:17:40.404Z,101416.50
2023-04-09T06:20:09.119Z,101421.22
2023-04-09T06:22:36.786Z,101424.03
2023-04-09T06:25:05.293Z,101418.03
2023-04-09T06:27:33.037Z,101416.31
2023-04-09T06:30:00.730Z,101427.03
2023-04-09T06:32:28.988Z,101424.50
2023-04-09T06:34:58.321Z,101421.16
2023-04-09T06:37:25.978Z,101421.09
2023-04-09T06:40:01.083Z,101433.41
2023-04-09T06:42:29.416Z,101429.09
2023-04-09T06:44:57.664Z,101430.00
2023-04-09T06:47:25.394Z,101431.09
2023-04-09T06:49:53.157Z,101435.72
2023-04-09T06:52:22.540Z,101426.03
2023-04-09T06:54:50.224Z,101430.44
2023-04-09T06:57:17.937Z,101426.09
2023-04-09T06:59:46.219Z,101418.09
2023-04-09T07:02:13.995Z,101434.53
2023-04-09T07:04:41.895Z,101422.81
2023-04-09T07:07:10.000Z,101424.22
2023-04-09T07:09:39.570Z,101421.72
2023-04-09T07:12:07.112Z,101426.38
2023-04-09T07:14:35.130Z,101417.75
2023-04-09T07:17:02.794Z,101409.97
2023-04-09T07:19:30.941Z,101420.06
2023-04-09T07:21:59.000Z,101412.63
2023-04-09T07:24:26.664Z,101420.72
2023-04-09T07:26:56.288Z,101424.53
2023-04-09T07:29:24.167Z,101428.97
2023-04-09T07:31:51.870Z,101421.50
2023-04-09T07:34:19.587Z,101417.50
2023-04-09T07:36:47.533Z,101424.50
2023-04-09T07:39:15.648Z,101422.53
2023-04-09T07:41:43.561Z,101424.84
2023-04-09T07:44:13.161Z,101429.63
2023-04-09T07:46:41.332Z,101426.41
2023-04-09T07:49:09.120Z,101428.72
2023-04-09T07:51:37.071Z,101428.16
2023-04-09T07:54:05.146Z,101421.88
2023-04-09T07:56:32.812Z,101428.28
2023-04-09T07:59:00.873Z,101426.09
2023-04-09T08:01:29.962Z,101416.53
2023-04-09T08:03:57.869Z,101413.28
2023-04-09T08:06:26.710Z,101415.16
2023-04-09T08:08:54.668Z,101412.09
2023-04-09T08:11:25.265Z,101415.00
2023-04-09T08:13:53.281Z,101420.53
2023-04-09T08:16:23.553Z,101419.09
2023-04-09T08:18:53.035Z,101424.44
2023-04-09T08:21:21.495Z,101416.69
2023-04-09T08:23:49.277Z,101417.09
2023-04-09T08:26:16.944Z,101419.13
2023-04-09T08:28:45.047Z,101421.56
2023-04-09T08:31:12.724Z,101410.50
2023-04-09T08:33:40.440Z,101414.34
2023-04-09T08:36:12.117Z,101413.69
2023-04-09T08:38:40.592Z,101409.78
2023-04-09T08:41:08.457Z,101404.59
2023-04-09T08:43:53.252Z,101413.78
2023-04-09T08:46:26.033Z,101414.53
2023-04-09T08:48:54.494Z,101406.91
2023-04-09T08:51:24.969Z,101411.38
2023-04-09T08:53:58.348Z,101408.00
2023-04-09T08:56:26.512Z,101416.94
2023-04-09T08:58:56.348Z,101409.28
2023-04-09T09:01:27.200Z,101413.94
2023-04-09T09:04:00.546Z,101413.22
2023-04-09T09:06:33.490Z,101405.53
2023-04-09T09:09:06.116Z,101405.69
2023-04-09T09:11:34.848Z,101400.94
2023-04-09T09:14:03.592Z,101405.47
2023-04-09T09:16:33.211Z,101400.28
2023-04-09T09:19:01.244Z,101410.44
2023-04-09T09:21:31.052Z,101412.28
2023-04-09T09:23:59.229Z,101409.19
2023-04-09T09:26:29.318Z,101405.25
2023-04-09T09:28:58.913Z,101402.94
2023-04-09T09:31:26.774Z,101405.19
2023-04-09T09:33:55.778Z,101403.72
2023-04-09T09:36:35.803Z,101396.03
2023-04-09T09:39:10.273Z,101401.38
2023-04-09T09:41:38.502Z,101399.31
2023-04-09T09:44:07.221Z,101398.03
2023-04-09T09:46:36.916Z,101383.19
2023-04-09T09:49:04.445Z,101382.53
2023-04-09T09:51:37.253Z,101383.50
2023-04-09T09:54:08.085Z,101382.25
2023-04-09T09:56:38.768Z,101379.34
2023-04-09T09:59:08.684Z,101377.84
2023-04-09T10:01:37.169Z,101367.97
2023-04-09T10:04:07.885Z,101373.06
2023-04-09T10:06:38.767Z,101371.22
2023-04-09T10:09:07.759Z,101370.19
2023-04-09T10:11:38.308Z,101373.91
2023-04-09T10:14:06.206Z,101365.28
2023-04-09T10:16:34.776Z,101359.56
2023-04-09T10:19:03.755Z,101353.31
2023-04-09T10:21:42.889Z,101359.63
2023-04-09T10:24:11.770Z,101358.50
2023-04-09T10:26:42.343Z,101352.84
2023-04-09T10:29:14.452Z,101352.97
2023-04-09T10:31:55.116Z,101348.38
2023-04-09T10:34:25.106Z,101342.56
2023-04-09T10:36:57.662Z,101327.91
2023-04-09T10:39:28.217Z,101338.53
2023-04-09T10:41:57.259Z,101343.63
2023-04-09T10:44:26.328Z,101332.69
2023-04-09T10:46:55.348Z,101337.47
2023-04-09T10:49:24.481Z,101335.25
2023-04-09T10:51:55.373Z,101333.63
2023-04-09T10:54:47.058Z,101325.69
2023-04-09T10:57:20.255Z,101323.72
2023-04-09T10:59:49.568Z,101327.41
2023-04-09T11:02:46.659Z,101322.50
2023-04-09T11:05:34.838Z,101322.50
2023-04-09T11:08:09.788Z,101325.16
2023-04-09T11:10:38.591Z,101320.06
2023-04-09T11:13:06.983Z,101322.94
2023-04-09T11:15:37.597Z,101321.91
2023-04-09T11:18:07.027Z,101310.84
2023-04-09T11:20:35.628Z,101313.53
2023-04-09T11:23:04.081Z,101312.09
2023-04-09T11:25:34.969Z,101314.22
2023-04-09T11:28:04.931Z,101296.41
2023-04-09T11:30:34.382Z,101302.31
2023-04-09T11:33:02.540Z,101301.75
2023-04-09T11:35:30.580Z,101296.53
2023-04-09T11:37:58.327Z,101294.13
2023-04-09T11:40:29.021Z,101290.31
2023-04-09T11:42:58.498Z,101292.91
2023-04-09T11:45:28.457Z,101287.00
2023-04-09T11:47:56.580Z,101292.59
2023-04-09T11:50:25.278Z,101279.78
2023-04-09T11:52:53.403Z,101289.81
2023-04-09T11:55:25.815Z,101284.88
2023-04-09T11:57:55.597Z,101292.34
2023-04-09T12:00:25.091Z,101278.09
2023-04-09T12:02:59.815Z,101292.81
2023-04-09T12:05:30.118Z,101288.97
2023-04-09T12:08:02.271Z,101290.94
2023-04-09T12:10:31.308Z,101284.28
2023-04-09T12:13:03.336Z,101283.56
2023-04-09T12:15:35.119Z,101280.75
2023-04-09T12:18:03.890Z,101283.53
2023-04-09T12:20:33.889Z,101281.78
2023-04-09T12:23:03.711Z,101281.78
2023-04-09T12:25:32.153Z,101281.03
2023-04-09T12:28:00.051Z,101287.00
2023-04-09T12:30:28.153Z,101277.88
2023-04-09T12:32:57.642Z,101284.06
2023-04-09T12:35:25.367Z,101278.22
2023-04-09T12:37:53.113Z,101273.69
2023-04-09T12:40:21.580Z,101261.66
2023-04-09T12:42:49.556Z,101266.53
2023-04-09T12:45:19.674Z,101271.44
2023-04-09T12:47:48.145Z,101268.25
2023-04-09T12:50:17.492Z,101273.16
2023-04-09T12:52:45.993Z,101263.47
2023-04-09T12:55:14.957Z,101264.50
2023-04-09T12:57:44.754Z,101268.75
2023-04-09T13:00:13.804Z,101257.69
2023-04-09T13:02:42.021Z,101263.75
2023-04-09T13:05:10.031Z,101256.19
2023-04-09T13:07:41.500Z,101252.13
2023-04-09T13:10:10.928Z,101258.22
2023-04-09T13:12:38.676Z,101257.66
2023-04-09T13:15:07.633Z,101251.13
2023-04-09T13:17:35.472Z,101259.38
2023-04-09T13:20:03.832Z,101254.28
2023-04-09T13:22:31.512Z,101254.28
2023-04-09T13:25:00.907Z,101243.91
2023-04-09T13:27:28.589Z,101244.16
2023-04-09T13:29:56.275Z,101241.94
2023-04-09T13:32:24.519Z,101240.63
2023-04-09T13:34:53.691Z,101235.59
2023-04-09T13:37:21.419Z,101238.63
2023-04-09T13:39:49.109Z,101234.63
2023-04-09T13:42:18.302Z,101231.97
2023-04-09T13:44:46.120Z,101239.19
2023-04-09T13:47:16.068Z,101233.00
2023-04-09T13:49:44.214Z,101239.69
2023-04-09T13:52:12.379Z,101230.84
2023-04-09T13:54:40.903Z,101229.19
2023-04-09T13:57:08.622Z,101224.88
2023-04-09T13:59:38.050Z,101223.00
2023-04-09T14:02:06.292Z,101219.53
2023-04-09T14:04:34.105Z,101217.91
2023-04-09T14:07:01.876Z,101220.00
2023-04-09T14:09:29.855Z,101207.63
2023-04-09T14:11:57.756Z,101206.00
2023-04-09T14:14:25.980Z,101193.41
2023-04-09T14:16:55.745Z,101186.19
2023-04-09T14:19:23.994Z,101192.63
2023-04-09T14:21:53.202Z,101182.25
2023-04-09T14:24:23.281Z,101186.91
2023-04-09T14:26:53.049Z,101190.44
2023-04-09T14:29:20.961Z,101191.25
2023-04-09T14:31:49.046Z,101185.06
2023-04-09T14:34:19.364Z,101181.63
2023-04-09T14:36:47.249Z,101168.22
2023-04-09T14:39:15.226Z,101166.41
2023-04-09T14:41:42.926Z,101159.38
2023-04-09T14:44:10.680Z,101160.19
2023-04-09T14:46:38.759Z,101159.16
2023-04-09T14:49:06.485Z,101144.94
2023-04-09T14:51:35.780Z,101148.19
2023-04-09T14:54:03.776Z,101147.13
2023-04-09T14:56:31.521Z,101137.22
2023-04-09T14:58:59.207Z,101141.50
2023-04-09T15:01:27.722Z,101135.94
2023-04-09T15:03:56.041Z,101133.72
2023-04-09T15:06:23.988Z,101150.94
2023-04-09T15:08:53.614Z,101162.50
2023-04-09T15:11:22.832Z,101154.69
2023-04-09T15:13:50.727Z,101137.00
2023-04-09T15:16:22.725Z,101143.97
2023-04-09T15:18:52.347Z,101146.06
2023-04-09T15:21:20.726Z,101147.13
2023-04-09T15:23:48.789Z,101138.53
2023-04-09T15:26:17.826Z,101132.91
2023-04-09T15:28:46.111Z,101131.28
2023-04-09T15:31:14.718Z,101127.22
2023-04-09T15:33:44.750Z,101132.56
2023-04-09T15:36:12.630Z,101145.41
2023-04-09T15:38:41.001Z,101140.06
2023-04-09T15:41:08.708Z,101139.25
2023-04-09T15:43:37.769Z,101130.41
2023-04-09T15:46:10.480Z,101127.72
2023-04-09T15:48:38.437Z,101130.59
2023-04-09T15:51:06.496Z,101130.88
2023-04-09T15:53:34.689Z,101122.81
2023-04-09T15:56:02.394Z,101136.47
2023-04-09T15:58:30.072Z,101128.66
2023-04-09T16:06:42.258Z,101123.78
2023-04-09T16:09:09.974Z,101124.03
2023-04-09T16:11:37.686Z,101123.78
2023-04-09T16:14:05.878Z,101109.81
2023-04-09T16:16:34.966Z,101117.63
2023-04-09T16:19:02.901Z,101106.91
2023-04-09T16:21:31.382Z,101107.72
2023-04-09T16:23:59.082Z,101106.41
2023-04-09T16:26:26.839Z,101111.75
2023-04-09T16:28:55.290Z,101111.91
2023-04-09T16:31:23.276Z,101108.19
2023-04-09T16:33:52.336Z,101103.63
2023-04-09T16:36:20.731Z,101104.44
2023-04-09T16:38:49.556Z,101103.41
2023-04-09T16:41:17.270Z,101095.59
2023-04-09T16:43:46.987Z,101095.38
2023-04-09T16:46:14.747Z,101091.03
2023-04-09T16:48:42.493Z,101084.88
2023-04-09T16:51:12.235Z,101087.31
2023-04-09T16:53:40.132Z,101090.00
2023-04-09T16:56:08.865Z,101088.34
2023-04-09T16:58:37.060Z,101088.34
2023-04-09T17:01:05.040Z,101097.47
2023-04-09T17:03:33.170Z,101090.72
2023-04-09T17:06:02.359Z,101096.31
2023-04-09T17:08:31.798Z,101084.22
2023-04-09T17:11:03.218Z,101093.31
2023-04-09T17:13:31.571Z,101092.72
2023-04-09T17:15:59.498Z,101088.69
2023-04-09T17:18:27.878Z,101096.97
2023-04-09T17:20:55.817Z,101092.09
2023-04-09T17:23:23.550Z,101094.19
2023-04-09T17:25:53.603Z,101087.44
2023-04-09T17:28:21.409Z,101092.22
2023-04-09T17:30:49.227Z,101077.88
2023-04-09T17:33:17.569Z,101081.16
2023-04-09T17:35:45.360Z,101078.72
2023-04-09T17:38:17.679Z,101081.63
2023-04-09T17:40:45.351Z,101079.19
2023-04-09T17:43:15.085Z,101080.25
2023-04-09T17:45:43.362Z,101082.59
2023-04-09T17:48:11.053Z,101091.69
2023-04-09T17:50:39.597Z,101089.47
2023-04-09T17:53:08.009Z,101090.78
2023-04-09T17:55:35.775Z,101096.34
2023-04-09T17:58:04.070Z,101090.69
2023-04-09T18:00:34.830Z,101082.03
2023-04-09T18:03:02.906Z,101091.63
2023-04-09T18:05:31.076Z,101088.38
2023-04-09T18:08:00.214Z,101089.66
2023-04-09T18:10:28.018Z,101083.63
2023-04-09T18:12:55.786Z,101094.31
2023-04-09T18:15:24.118Z,101101.00
2023-04-09T18:17:53.257Z,101102.00
2023-04-09T18:20:21.039Z,101107.25
2023-04-09T18:22:49.505Z,101109.63
2023-04-09T18:25:17.294Z,101109.28
2023-04-09T18:27:45.269Z,101109.72
2023-04-09T18:30:13.908Z,101117.44
2023-04-09T18:32:41.973Z,101113.34
2023-04-09T18:35:11.435Z,101117.91
2023-04-09T18:37:39.573Z,101115.91
2023-04-09T18:40:08.714Z,101113.72
2023-04-09T18:42:36.585Z,101112.31
2023-04-09T18:45:05.096Z,101117.31
2023-04-09T18:47:32.784Z,101115.13
2023-04-09T18:50:00.573Z,101114.78
2023-04-09T18:52:30.175Z,101123.22
2023-04-09T18:54:57.784Z,101113.38
2023-04-09T18:57:25.449Z,101114.28
2023-04-09T18:59:53.665Z,101123.00
2023-04-09T19:02:21.477Z,101113.00
2023-04-09T19:04:49.359Z,101120.91
2023-04-09T19:07:17.677Z,101126.13
2023-04-09T19:09:46.944Z,101125.78
2023-04-09T19:12:14.628Z,101129.41
2023-04-09T19:14:42.859Z,101128.44
2023-04-09T19:17:11.670Z,101128.31
2023-04-09T19:19:39.313Z,101124.50
2023-04-09T19:22:07.539Z,101128.66
2023-04-09T19:24:35.571Z,101126.91
2023-04-09T19:27:10.174Z,101119.22
2023-04-09T19:29:37.991Z,101129.34
2023-04-09T19:32:06.203Z,101128.16
2023-04-09T19:34:34.386Z,101132.31
2023-04-09T19:37:02.460Z,101131.13
2023-04-09T19:39:30.363Z,101129.97
2023-04-09T19:41:58.604Z,101125.28
2023-04-09T19:44:27.641Z,101124.94
2023-04-09T19:46:55.427Z,101127.47
2023-04-09T19:49:23.673Z,101130.56
2023-04-09T19:51:51.345Z,101132.06
2023-04-09T19:54:19.079Z,101128.19
2023-04-09T19:56:47.169Z,101126.19
2023-04-09T19:59:15.683Z,101130.38
2023-04-09T20:01:44.811Z,101130.00
2023-04-09T20:04:13.440Z,101126.16
2023-04-09T20:06:43.812Z,101125.56
2023-04-09T20:09:12.405Z,101121.72
2023-04-09T20:11:40.821Z,101123.22
2023-04-09T20:14:08.509Z,101116.69
2023-04-09T20:16:36.255Z,101116.34
2023-04-09T20:19:06.236Z,101113.88
2023-04-09T20:21:34.281Z,101108.19
2023-04-09T20:24:02.463Z,101113.94
2023-04-09T20:26:30.425Z,101107.19
2023-04-09T20:28:58.785Z,101100.47
2023-04-09T20:31:27.389Z,101098.03
2023-04-09T20:33:55.442Z,101099.28
2023-04-09T20:36:24.477Z,101095.78
2023-04-09T20:38:52.320Z,101091.72
2023-04-09T20:41:20.317Z,101092.97
2023-04-09T20:43:47.944Z,101088.06
2023-04-09T20:46:15.733Z,101081.34
2023-04-09T20:48:44.171Z,101085.06
2023-04-09T20:51:12.565Z,101086.31
2023-04-09T20:53:41.584Z,101084.69
2023-04-09T20:56:09.718Z,101087.56
2023-04-09T20:58:37.710Z,101088.59
2023-04-09T21:01:07.217Z,101083.50
2023-04-09T21:03:36.090Z,101080.97
2023-04-09T21:06:04.104Z,101089.19
2023-04-09T21:08:31.880Z,101080.81
2023-04-09T21:11:01.129Z,101089.88
2023-04-09T21:13:28.893Z,101085.78
2023-04-09T21:15:57.925Z,101079.84
2023-04-09T21:18:25.814Z,101081.94
2023-04-09T21:20:53.451Z,101084.81
2023-04-09T21:23:21.152Z,101087.72
2023-04-09T21:25:49.424Z,101090.59
2023-04-09T21:28:18.464Z,101095.13
2023-04-09T21:30:46.206Z,101095.28
2023-04-09T21:33:14.364Z,101084.03
2023-04-09T21:35:42.089Z,101086.13
2023-04-09T21:38:09.949Z,101085.28
2023-04-09T21:40:38.569Z,101083.66
2023-04-09T21:43:06.650Z,101083.91
2023-04-09T21:45:35.677Z,101079.59
2023-04-09T21:48:04.600Z,101081.06
2023-04-09T21:50:32.563Z,101083.13
2023-04-09T21:53:00.615Z,101088.69
2023-04-09T21:55:28.860Z,101084.81
2023-04-09T21:57:56.590Z,101092.47
2023-04-09T22:00:24.398Z,101093.72
2023-04-09T22:02:54.406Z,101086.97
2023-04-09T22:05:23.215Z,101095.41
2023-04-09T22:07:51.044Z,101083.13
2023-04-09T22:10:19.735Z,101083.53
2023-04-09T22:12:47.421Z,101074.16
2023-04-09T22:15:15.374Z,101081.53
2023-04-09T22:17:44.984Z,101090.78
2023-04-09T22:20:14.101Z,101081.53
2023-04-09T22:22:42.414Z,101093.44
2023-04-09T22:25:12.474Z,101102.09
2023-04-09T22:27:40.253Z,101109.69
2023-04-09T22:30:09.319Z,101098.66
2023-04-09T22:32:37.499Z,101107.91
2023-04-09T22:35:06.325Z,101104.66
2023-04-09T22:37:36.172Z,101104.66
2023-04-09T22:40:04.540Z,101098.94
2023-04-09T22:42:32.983Z,101096.50
2023-04-09T22:45:00.793Z,101101.22
2023-04-09T22:47:29.054Z,101109.66
2023-04-09T22:49:56.976Z,101098.16
2023-04-09T22:52:24.740Z,101109.25
2023-04-09T22:54:54.334Z,101108.44
2023-04-09T22:57:21.831Z,101111.69
2023-04-09T22:59:49.619Z,101109.44
2023-04-09T23:02:17.901Z,101114.63
2023-04-09T23:04:45.965Z,101111.78
2023-04-09T23:07:13.638Z,101110.59
2023-04-09T23:09:41.854Z,101117.38
2023-04-09T23:12:10.899Z,101111.44
2023-04-09T23:14:38.602Z,101112.91
2023-04-09T23:17:06.855Z,101106.16
2023-04-09T23:19:34.530Z,101096.97
2023-04-09T23:22:02.194Z,101084.88
2023-04-09T23:24:30.382Z,101081.00
2023-04-09T23:26:58.046Z,101070.75
2023-04-09T23:29:27.152Z,101067.50
2023-04-09T23:31:55.413Z,101060.97
2023-04-09T23:34:23.177Z,101056.09
2023-04-09T23:36:51.602Z,101057.53
2023-04-09T23:39:19.502Z,101054.72
2023-04-09T23:41:47.227Z,101061.25
2023-04-09T23:44:14.923Z,101070.50
2023-04-09T23:46:44.174Z,101061.31
2023-04-09T23:49:11.845Z,101058.47
2023-04-09T23:51:39.561Z,101057.84
2023-04-09T23:54:07.563Z,101053.78
2023-04-09T23:56:35.478Z,101040.28
2023-04-09T23:59:03.152Z,101043.34
